createdAt,value
2019-06-15T00:02:19.819Z,61.80
2019-06-15T00:04:50.096Z,61.60
2019-06-15T00:07:18.519Z,61.60
2019-06-15T00:09:46.958Z,61.80
2019-06-15T00:12:15.393Z,61.70
2019-06-15T00:14:43.834Z,61.50
2019-06-15T00:17:13.557Z,60.70
2019-06-15T00:19:43.506Z,61.00
2019-06-15T00:22:17.603Z,60.80
2019-06-15T00:24:48.805Z,60.70
2019-06-15T00:27:17.290Z,61.40
2019-06-15T00:29:47.287Z,62.30
2019-06-15T00:32:17.357Z,62.70
2019-06-15T00:34:47.522Z,63.60
2019-06-15T00:37:18.081Z,63.30
2019-06-15T00:39:48.074Z,62.10
2019-06-15T00:42:19.237Z,62.70
2019-06-15T00:44:49.265Z,63.30
2019-06-15T00:47:17.819Z,62.60
2019-06-15T00:49:50.687Z,63.70
2019-06-15T00:52:19.135Z,63.30
2019-06-15T00:54:50.841Z,64.30
2019-06-15T00:57:19.383Z,65.90
2019-06-15T00:59:47.812Z,64.60
2019-06-15T01:02:23.228Z,64.20
2019-06-15T01:04:54.539Z,65.20
2019-06-15T01:07:22.999Z,66.40
2019-06-15T01:09:51.416Z,66.70
2019-06-15T01:12:22.593Z,66.50
2019-06-15T01:14:51.081Z,67.10
2019-06-15T01:17:22.586Z,66.70
2019-06-15T01:19:51.159Z,67.10
2019-06-15T01:22:19.662Z,67.60
2019-06-15T01:24:48.096Z,68.40
2019-06-15T01:27:16.549Z,68.30
2019-06-15T01:29:44.975Z,68.90
2019-06-15T01:32:13.420Z,69.10
2019-06-15T01:34:42.211Z,70.40
2019-06-15T01:37:10.711Z,71.10
2019-06-15T01:39:41.412Z,70.20
2019-06-15T01:42:11.201Z,69.00
2019-06-15T01:44:40.819Z,69.50
2019-06-15T01:47:09.319Z,70.40
2019-06-15T01:49:37.810Z,70.30
2019-06-15T01:52:07.804Z,70.30
2019-06-15T01:54:36.386Z,70.80
2019-06-15T01:57:05.052Z,71.80
2019-06-15T01:59:33.563Z,71.50
2019-06-15T02:02:02.006Z,71.00
2019-06-15T02:04:31.966Z,70.90
2019-06-15T02:07:03.476Z,70.70
2019-06-15T02:09:32.012Z,71.40
2019-06-15T02:12:00.424Z,71.10
2019-06-15T02:14:31.715Z,72.00
2019-06-15T02:17:03.293Z,72.20
2019-06-15T02:19:31.782Z,72.50
2019-06-15T02:22:00.210Z,72.70
2019-06-15T02:24:28.680Z,73.80
2019-06-15T02:26:57.099Z,75.00
2019-06-15T02:29:27.697Z,75.70
2019-06-15T02:31:55.740Z,76.20
2019-06-15T02:34:24.180Z,76.30
2019-06-15T02:36:55.573Z,75.50
2019-06-15T02:39:26.109Z,76.20
2019-06-15T02:41:57.443Z,76.10
2019-06-15T02:44:25.996Z,75.30
2019-06-15T02:46:57.514Z,76.50
2019-06-15T02:49:25.962Z,77.10
2019-06-15T02:51:54.450Z,77.20
2019-06-15T02:54:24.541Z,77.20
2019-06-15T02:56:53.055Z,77.60
2019-06-15T02:59:21.510Z,77.30
2019-06-15T03:01:53.088Z,78.10
2019-06-15T03:04:21.598Z,77.90
2019-06-15T03:06:50.286Z,77.80
2019-06-15T03:09:18.850Z,79.20
2019-06-15T03:11:49.675Z,79.80
2019-06-15T03:14:17.534Z,81.60
2019-06-15T03:16:46.018Z,81.40
2019-06-15T03:19:14.442Z,81.00
2019-06-15T03:21:42.883Z,80.90
2019-06-15T03:24:11.307Z,80.20
2019-06-15T03:26:39.762Z,80.50
2019-06-15T03:29:08.247Z,81.10
2019-06-15T03:31:36.709Z,81.70
2019-06-15T03:34:05.125Z,83.90
2019-06-15T03:36:35.118Z,83.20
2019-06-15T03:39:05.283Z,83.40
2019-06-15T03:41:33.804Z,83.90
2019-06-15T03:44:02.319Z,85.40
2019-06-15T03:46:30.795Z,86.20
2019-06-15T03:48:59.215Z,85.50
2019-06-15T03:51:27.658Z,85.90
2019-06-15T03:53:56.084Z,86.70
2019-06-15T03:56:24.521Z,86.20
2019-06-15T03:58:52.958Z,85.40
2019-06-15T04:01:27.187Z,85.90
2019-06-15T04:03:57.234Z,86.30
2019-06-15T04:06:25.675Z,87.40
2019-06-15T04:08:54.135Z,87.70
2019-06-15T04:11:22.651Z,88.00
2019-06-15T04:13:52.632Z,88.20
2019-06-15T04:16:21.147Z,87.00
2019-06-15T04:18:49.577Z,82.60
2019-06-15T04:21:17.999Z,73.70
2019-06-15T04:23:46.461Z,63.90
2019-06-15T04:26:16.524Z,52.60
2019-06-15T04:28:44.971Z,50.00
2019-06-15T04:31:13.399Z,47.30
2019-06-15T04:33:41.843Z,47.00
2019-06-15T04:36:10.262Z,46.50
2019-06-15T04:38:38.724Z,46.20
2019-06-15T04:41:07.151Z,46.90
2019-06-15T04:43:35.602Z,47.20
2019-06-15T04:46:04.166Z,46.70
2019-06-15T04:48:32.673Z,47.30
2019-06-15T04:51:02.687Z,48.20
2019-06-15T04:53:31.318Z,48.20
2019-06-15T04:55:59.765Z,48.60
2019-06-15T04:58:29.968Z,49.40
2019-06-15T05:00:58.413Z,49.40
2019-06-15T05:03:26.928Z,49.20
2019-06-15T05:05:55.385Z,50.20
2019-06-15T05:08:23.797Z,50.70
2019-06-15T05:10:52.239Z,50.00
2019-06-15T05:13:22.206Z,50.40
2019-06-15T05:15:50.662Z,50.60
2019-06-15T05:18:19.147Z,49.10
2019-06-15T05:20:47.621Z,50.00
2019-06-15T05:23:16.086Z,51.50
2019-06-15T05:25:44.539Z,51.70
2019-06-15T05:28:12.983Z,51.20
2019-06-15T05:30:41.529Z,51.60
2019-06-15T05:33:10.020Z,52.10
2019-06-15T05:35:38.530Z,53.20
2019-06-15T05:38:06.940Z,52.00
2019-06-15T05:40:35.450Z,52.10
2019-06-15T05:43:04.074Z,50.30
2019-06-15T05:45:32.515Z,49.70
2019-06-15T05:48:00.944Z,48.90
2019-06-15T05:50:29.456Z,49.30
2019-06-15T05:52:57.979Z,48.40
2019-06-15T05:55:27.451Z,49.00
2019-06-15T05:57:56.016Z,47.70
2019-06-15T06:00:26.161Z,48.40
2019-06-15T06:02:54.718Z,48.00
2019-06-15T06:05:23.158Z,47.30
2019-06-15T06:07:51.609Z,47.80
2019-06-15T06:10:20.160Z,48.90
2019-06-15T06:12:48.614Z,49.30
2019-06-15T06:15:17.388Z,49.90
2019-06-15T06:17:45.827Z,49.10
2019-06-15T06:20:15.064Z,49.50
2019-06-15T06:22:43.578Z,48.20
2019-06-15T06:25:13.350Z,49.10
2019-06-15T06:27:41.800Z,48.60
2019-06-15T06:30:11.260Z,49.20
2019-06-15T06:32:39.724Z,49.10
2019-06-15T06:35:08.991Z,47.40
2019-06-15T06:37:37.450Z,47.60
2019-06-15T06:40:10.944Z,47.90
2019-06-15T06:42:39.479Z,48.30
2019-06-15T06:45:09.817Z,45.90
2019-06-15T06:47:38.432Z,46.10
2019-06-15T06:50:08.383Z,46.80
2019-06-15T06:52:36.827Z,48.50
2019-06-15T06:55:08.504Z,46.70
2019-06-15T06:57:51.110Z,46.90
2019-06-15T07:00:07.990Z,45.40
2019-06-15T07:02:36.581Z,46.00
2019-06-15T07:05:06.104Z,45.10
2019-06-15T07:07:34.733Z,47.00
2019-06-15T07:10:05.014Z,47.30
2019-06-15T07:12:33.435Z,46.50
2019-06-15T07:15:04.692Z,47.20
2019-06-15T07:17:33.724Z,46.20
2019-06-15T07:20:02.558Z,45.40
2019-06-15T07:22:31.083Z,45.00
2019-06-15T07:24:59.535Z,46.50
2019-06-15T07:27:27.964Z,47.70
2019-06-15T07:29:56.538Z,48.00
2019-06-15T07:32:24.983Z,45.90
2019-06-15T07:34:53.438Z,44.90
2019-06-15T07:37:21.859Z,46.70
2019-06-15T07:39:50.304Z,45.30
2019-06-15T07:42:18.732Z,46.40
2019-06-15T07:44:47.188Z,46.60
2019-06-15T07:47:15.623Z,46.40
2019-06-15T07:49:44.131Z,45.30
2019-06-15T07:52:12.640Z,44.20
2019-06-15T07:54:41.166Z,45.00
2019-06-15T07:57:09.595Z,45.00
2019-06-15T07:59:38.024Z,44.90
2019-06-15T08:02:06.443Z,44.90
2019-06-15T08:04:34.888Z,44.50
2019-06-15T08:07:03.380Z,44.10
2019-06-15T08:09:31.938Z,46.60
2019-06-15T08:12:00.367Z,46.00
2019-06-15T08:14:28.809Z,45.90
2019-06-15T08:16:57.258Z,46.20
2019-06-15T08:19:27.523Z,43.80
2019-06-15T08:21:55.952Z,44.90
2019-06-15T08:24:24.386Z,45.40
2019-06-15T08:26:52.889Z,44.00
2019-06-15T08:29:21.314Z,44.80
2019-06-15T08:31:52.047Z,44.50
2019-06-15T08:34:20.488Z,45.40
2019-06-15T08:36:48.939Z,45.40
2019-06-15T08:39:17.367Z,45.90
2019-06-15T08:41:45.823Z,46.60
2019-06-15T08:44:14.313Z,45.80
2019-06-15T08:46:42.756Z,47.00
2019-06-15T08:49:11.250Z,46.90
2019-06-15T08:51:39.698Z,45.60
2019-06-15T08:54:08.123Z,45.40
2019-06-15T08:56:36.580Z,46.60
2019-06-15T08:59:04.995Z,46.60
2019-06-15T09:01:33.432Z,46.10
2019-06-15T09:04:02.003Z,46.10
2019-06-15T09:06:30.514Z,47.00
2019-06-15T09:08:58.923Z,46.00
2019-06-15T09:11:27.438Z,47.10
2019-06-15T09:13:57.419Z,48.10
2019-06-15T09:16:25.990Z,47.20
2019-06-15T09:18:57.272Z,45.60
2019-06-15T09:21:24.724Z,47.70
2019-06-15T09:23:53.261Z,46.50
2019-06-15T09:26:21.845Z,46.90
2019-06-15T09:28:50.386Z,46.40
2019-06-15T09:31:18.880Z,45.40
2019-06-15T09:33:48.899Z,45.20
2019-06-15T09:36:17.488Z,46.80
2019-06-15T09:38:45.988Z,48.10
2019-06-15T09:41:14.416Z,45.40
2019-06-15T09:43:44.395Z,44.90
2019-06-15T09:46:12.828Z,44.70
2019-06-15T09:48:41.276Z,47.10
2019-06-15T09:51:09.704Z,44.00
2019-06-15T09:53:38.160Z,44.90
2019-06-15T09:56:06.645Z,45.10
2019-06-15T09:58:35.078Z,44.60
2019-06-15T10:01:03.514Z,46.40
2019-06-15T10:03:31.957Z,45.10
2019-06-15T10:06:00.446Z,46.20
2019-06-15T10:08:28.884Z,46.30
2019-06-15T10:10:57.323Z,45.00
2019-06-15T10:13:25.763Z,45.60
2019-06-15T10:15:54.196Z,46.70
2019-06-15T10:18:22.639Z,45.90
2019-06-15T10:20:52.621Z,45.60
2019-06-15T10:23:21.054Z,44.70
2019-06-15T10:25:50.541Z,44.40
2019-06-15T10:28:19.119Z,44.80
2019-06-15T10:30:47.556Z,45.50
2019-06-15T10:33:16.007Z,44.60
2019-06-15T10:35:44.454Z,45.10
2019-06-15T10:38:12.879Z,45.20
2019-06-15T10:40:41.321Z,43.90
2019-06-15T10:43:09.847Z,44.50
2019-06-15T10:45:38.293Z,43.60
2019-06-15T10:48:06.794Z,45.80
2019-06-15T10:50:35.304Z,45.10
2019-06-15T10:53:03.795Z,44.40
2019-06-15T10:55:32.269Z,45.60
2019-06-15T10:58:00.717Z,44.80
2019-06-15T11:00:29.523Z,45.00
2019-06-15T11:02:58.066Z,45.00
2019-06-15T11:05:26.538Z,45.10
2019-06-15T11:07:55.001Z,44.40
2019-06-15T11:10:42.962Z,44.70
2019-06-15T11:13:11.363Z,43.40
2019-06-15T11:15:40.737Z,44.00
2019-06-15T11:18:09.648Z,44.40
2019-06-15T11:20:38.099Z,44.90
2019-06-15T11:23:06.523Z,43.60
2019-06-15T11:25:34.979Z,43.00
2019-06-15T11:28:03.430Z,44.40
2019-06-15T11:30:32.143Z,44.10
2019-06-15T11:33:00.555Z,44.80
2019-06-15T11:35:29.093Z,44.30
2019-06-15T11:37:59.184Z,43.10
2019-06-15T11:40:27.662Z,45.00
2019-06-15T11:42:56.122Z,42.90
2019-06-15T11:45:24.552Z,44.60
2019-06-15T11:47:53.009Z,43.50
2019-06-15T11:50:21.648Z,43.50
2019-06-15T11:52:50.183Z,44.50
2019-06-15T11:55:20.051Z,44.60
2019-06-15T11:57:48.808Z,45.60
2019-06-15T12:00:30.841Z,43.60
2019-06-15T12:02:50.579Z,43.70
2019-06-15T12:05:19.004Z,44.30
2019-06-15T12:07:47.443Z,44.00
2019-06-15T12:10:16.218Z,44.80
2019-06-15T12:12:44.683Z,44.30
2019-06-15T12:15:13.336Z,45.80
2019-06-15T12:17:41.790Z,46.00
2019-06-15T12:20:10.655Z,46.70
2019-06-15T12:22:39.093Z,46.20
2019-06-15T12:25:07.855Z,45.70
2019-06-15T12:27:37.910Z,45.50
2019-06-15T12:30:08.965Z,44.40
2019-06-15T12:32:37.404Z,44.30
2019-06-15T12:35:06.925Z,44.30
2019-06-15T12:37:35.374Z,45.70
2019-06-15T12:40:08.747Z,47.00
2019-06-15T12:42:37.200Z,45.50
2019-06-15T12:45:05.891Z,45.50
2019-06-15T12:47:34.514Z,45.40
2019-06-15T12:50:04.528Z,46.40
2019-06-15T12:52:32.973Z,47.40
2019-06-15T12:55:01.477Z,47.10
2019-06-15T12:57:29.930Z,45.10
2019-06-15T12:59:58.504Z,45.30
2019-06-15T13:02:28.474Z,45.50
2019-06-15T13:04:56.952Z,45.20
2019-06-15T13:07:25.399Z,45.00
2019-06-15T13:09:53.838Z,44.00
2019-06-15T13:12:22.262Z,44.00
2019-06-15T13:14:50.745Z,45.00
2019-06-15T13:17:19.178Z,45.40
2019-06-15T13:19:47.647Z,42.90
2019-06-15T13:22:16.071Z,44.50
2019-06-15T13:24:46.079Z,44.40
2019-06-15T13:27:14.568Z,45.00
2019-06-15T13:29:43.041Z,45.20
2019-06-15T13:32:11.518Z,44.80
2019-06-15T13:34:40.031Z,44.90
2019-06-15T13:37:08.518Z,44.20
2019-06-15T13:39:37.015Z,43.90
2019-06-15T13:42:07.194Z,43.70
2019-06-15T13:44:35.628Z,44.50
2019-06-15T13:47:05.756Z,45.60
2019-06-15T13:49:34.163Z,44.90
2019-06-15T13:52:02.705Z,45.70
2019-06-15T13:54:31.206Z,46.70
2019-06-15T13:56:59.645Z,46.10
2019-06-15T13:59:28.106Z,44.70
2019-06-15T14:01:58.155Z,44.10
2019-06-15T14:04:26.584Z,44.30
2019-06-15T14:06:55.284Z,45.30
2019-06-15T14:09:23.748Z,45.00
2019-06-15T14:11:52.158Z,46.20
2019-06-15T14:14:20.686Z,45.70
2019-06-15T14:16:49.139Z,45.00
2019-06-15T14:19:17.565Z,44.60
2019-06-15T14:21:46.003Z,45.10
2019-06-15T14:24:14.492Z,44.80
2019-06-15T14:26:42.919Z,44.30
2019-06-15T14:29:11.349Z,45.30
2019-06-15T14:31:49.792Z,45.70
2019-06-15T14:34:10.003Z,44.40
2019-06-15T14:36:38.439Z,43.40
2019-06-15T14:39:07.173Z,43.30
2019-06-15T14:41:35.610Z,43.90
2019-06-15T14:44:04.294Z,43.30
2019-06-15T14:46:32.729Z,43.70
2019-06-15T14:49:01.171Z,43.40
2019-06-15T14:51:29.610Z,44.40
2019-06-15T14:53:59.043Z,43.90
2019-06-15T14:56:27.756Z,44.40
2019-06-15T14:58:56.393Z,44.40
2019-06-15T15:01:26.127Z,44.30
2019-06-15T15:03:57.061Z,44.00
2019-06-15T15:06:26.082Z,42.90
2019-06-15T15:08:56.229Z,43.00
2019-06-15T15:11:26.511Z,43.60
2019-06-15T15:13:56.198Z,43.80
2019-06-15T15:16:24.894Z,43.50
2019-06-15T15:18:53.377Z,43.30
2019-06-15T15:21:21.799Z,43.40
2019-06-15T15:23:50.244Z,43.80
2019-06-15T15:26:18.747Z,43.80
2019-06-15T15:28:47.443Z,44.30
2019-06-15T15:31:17.239Z,44.20
2019-06-15T15:33:47.733Z,44.00
2019-06-15T15:36:16.919Z,43.80
2019-06-15T15:38:46.844Z,44.30
2019-06-15T15:41:17.129Z,44.70
2019-06-15T15:43:46.356Z,44.10
2019-06-15T15:46:16.442Z,43.10
2019-06-15T15:48:46.928Z,43.40
2019-06-15T15:51:17.164Z,42.90
2019-06-15T15:53:46.704Z,42.90
2019-06-15T15:56:17.097Z,42.70
2019-06-15T15:58:47.146Z,42.30
2019-06-15T16:01:17.118Z,42.20
2019-06-15T16:03:47.555Z,42.60
2019-06-15T16:06:16.128Z,42.20
2019-06-15T16:08:47.150Z,43.10
2019-06-15T16:11:16.280Z,43.10
2019-06-15T16:13:46.176Z,42.00
2019-06-15T16:16:16.481Z,42.80
2019-06-15T16:18:46.969Z,43.20
2019-06-15T16:21:16.827Z,42.90
2019-06-15T16:23:47.048Z,42.50
2019-06-15T16:26:16.918Z,41.70
2019-06-15T16:28:46.193Z,42.00
2019-06-15T16:31:17.732Z,42.40
2019-06-15T16:33:46.508Z,42.60
2019-06-15T16:36:16.815Z,41.90
2019-06-15T16:38:47.004Z,40.40
2019-06-15T16:41:15.478Z,41.00
2019-06-15T16:43:45.970Z,40.20
2019-06-15T16:46:14.094Z,39.60
2019-06-15T16:48:42.520Z,40.00
2019-06-15T16:51:11.128Z,40.70
2019-06-15T16:53:39.542Z,40.80
2019-06-15T16:56:07.986Z,40.40
2019-06-15T16:58:36.462Z,40.10
2019-06-15T17:01:06.517Z,39.90
2019-06-15T17:03:36.703Z,40.40
2019-06-15T17:06:07.032Z,39.60
2019-06-15T17:08:36.764Z,39.60
2019-06-15T17:11:06.817Z,40.30
2019-06-15T17:13:37.022Z,40.60
2019-06-15T17:16:06.081Z,40.60
2019-06-15T17:18:36.459Z,40.00
2019-06-15T17:21:07.105Z,40.50
2019-06-15T17:23:35.425Z,40.40
2019-06-15T17:26:06.274Z,41.30
2019-06-15T17:28:34.032Z,41.00
2019-06-15T17:31:06.045Z,41.00
2019-06-15T17:33:38.132Z,40.60
2019-06-15T17:36:06.585Z,41.10
2019-06-15T17:38:37.006Z,40.80
2019-06-15T17:41:05.050Z,41.10
2019-06-15T17:43:33.486Z,41.40
2019-06-15T17:46:02.056Z,40.50
2019-06-15T17:48:30.486Z,40.60
2019-06-15T17:50:58.941Z,40.00
2019-06-15T17:53:27.367Z,40.00
2019-06-15T17:55:56.189Z,40.60
2019-06-15T17:58:26.188Z,41.40
2019-06-15T18:00:57.282Z,40.80
2019-06-15T18:03:26.091Z,40.60
2019-06-15T18:05:54.683Z,40.90
2019-06-15T18:08:23.191Z,40.70
2019-06-15T18:10:51.619Z,40.40
2019-06-15T18:13:20.100Z,40.30
2019-06-15T18:15:48.530Z,40.70
2019-06-15T18:18:17.254Z,40.60
2019-06-15T18:20:45.880Z,40.70
2019-06-15T18:23:17.025Z,41.00
2019-06-15T18:25:46.917Z,40.40
2019-06-15T18:28:17.452Z,41.20
2019-06-15T18:30:46.615Z,41.40
2019-06-15T18:33:16.558Z,41.20
2019-06-15T18:35:47.578Z,41.20
2019-06-15T18:38:15.681Z,41.10
2019-06-15T18:40:44.091Z,41.60
2019-06-15T18:43:12.533Z,41.50
2019-06-15T18:45:40.965Z,42.00
2019-06-15T18:48:09.720Z,41.50
2019-06-15T18:50:40.394Z,42.00
2019-06-15T18:53:09.686Z,42.00
2019-06-15T18:55:38.875Z,42.70
2019-06-15T18:58:07.370Z,42.60
2019-06-15T19:00:37.068Z,42.50
2019-06-15T19:03:06.932Z,42.10
2019-06-15T19:05:37.254Z,42.00
2019-06-15T19:08:06.802Z,42.10
2019-06-15T19:10:36.833Z,42.90
2019-06-15T19:13:07.440Z,43.20
2019-06-15T19:15:37.448Z,42.80
2019-06-15T19:18:07.474Z,44.40
2019-06-15T19:20:37.272Z,44.30
2019-06-15T19:23:06.995Z,44.70
2019-06-15T19:25:36.511Z,45.30
2019-06-15T19:28:05.465Z,45.10
2019-06-15T19:30:37.038Z,45.20
2019-06-15T19:33:04.566Z,45.70
2019-06-15T19:35:36.036Z,45.60
2019-06-15T19:38:06.046Z,48.20
2019-06-15T19:40:33.911Z,50.10
2019-06-15T19:43:02.459Z,50.50
2019-06-15T19:45:31.039Z,49.90
2019-06-15T19:47:59.462Z,49.80
2019-06-15T19:50:27.914Z,49.80
2019-06-15T19:52:56.589Z,51.20
2019-06-15T19:55:26.876Z,51.80
2019-06-15T19:57:56.879Z,54.10
2019-06-15T20:00:27.023Z,56.30
2019-06-15T20:02:57.293Z,56.90
2019-06-15T20:05:28.594Z,56.90
2019-06-15T20:07:57.046Z,56.50
2019-06-15T20:10:26.675Z,55.10
2019-06-15T20:12:56.238Z,54.20
2019-06-15T20:15:26.293Z,53.50
2019-06-15T20:17:56.988Z,54.10
2019-06-15T20:20:26.630Z,53.70
2019-06-15T20:22:56.110Z,52.00
2019-06-15T20:25:26.834Z,53.10
2019-06-15T20:27:56.365Z,54.10
2019-06-15T20:30:25.016Z,53.10
2019-06-15T20:32:53.569Z,50.80
2019-06-15T20:35:22.012Z,50.40
2019-06-15T20:37:50.493Z,49.80
2019-06-15T20:40:19.013Z,49.40
2019-06-15T20:42:47.451Z,49.40
2019-06-15T20:45:16.410Z,50.00
2019-06-15T20:47:47.772Z,53.10
2019-06-15T20:50:25.481Z,57.80
2019-06-15T20:52:47.278Z,61.40
2019-06-15T20:55:16.355Z,64.70
2019-06-15T20:57:46.110Z,67.40
2019-06-15T21:00:16.738Z,69.00
2019-06-15T21:02:45.349Z,72.00
2019-06-15T21:05:32.618Z,74.10
2019-06-15T21:07:46.683Z,75.10
2019-06-15T21:10:16.084Z,73.50
2019-06-15T21:12:46.907Z,71.50
2019-06-15T21:15:15.459Z,72.40
2019-06-15T21:17:46.488Z,73.00
2019-06-15T21:20:16.219Z,71.90
2019-06-15T21:22:46.507Z,74.20
2019-06-15T21:25:17.379Z,72.60
2019-06-15T21:27:47.405Z,72.70
2019-06-15T21:30:16.567Z,71.70
2019-06-15T21:32:46.640Z,74.40
2019-06-15T21:35:15.307Z,77.40
2019-06-15T21:37:46.290Z,80.00
2019-06-15T21:40:15.970Z,80.60
2019-06-15T21:42:46.740Z,81.70
2019-06-15T21:45:14.844Z,80.70
2019-06-15T21:47:43.272Z,80.50
2019-06-15T21:50:12.396Z,81.30
2019-06-15T21:52:40.825Z,81.10
2019-06-15T21:55:09.899Z,83.20
2019-06-15T21:57:38.336Z,84.70
2019-06-15T22:00:17.190Z,83.90
2019-06-15T22:02:44.183Z,84.70
2019-06-15T22:05:13.284Z,85.80
2019-06-15T22:07:41.776Z,87.50
2019-06-15T22:10:10.454Z,86.60
2019-06-15T22:12:38.884Z,88.70
2019-06-15T22:15:09.269Z,89.40
2019-06-15T22:17:37.779Z,89.70
2019-06-15T22:20:06.954Z,88.30
2019-06-15T22:22:36.419Z,89.70
2019-06-15T22:25:06.885Z,89.70
2019-06-15T22:27:36.259Z,90.40
2019-06-15T22:30:07.658Z,91.00
2019-06-15T22:32:36.243Z,91.20
2019-06-15T22:35:09.347Z,91.30
2019-06-15T22:37:37.958Z,91.50
2019-06-15T22:40:08.192Z,91.60
2019-06-15T22:42:36.788Z,91.60
2019-06-15T22:45:07.309Z,91.70
2019-06-15T22:47:36.288Z,91.60
2019-06-15T22:50:06.920Z,91.60
2019-06-15T22:52:36.435Z,91.70
2019-06-15T22:55:08.823Z,91.70
2019-06-15T22:57:37.325Z,91.80
2019-06-15T23:00:08.008Z,91.80
2019-06-15T23:02:36.994Z,91.80
2019-06-15T23:05:06.490Z,91.60
2019-06-15T23:07:36.344Z,91.40
2019-06-15T23:10:08.160Z,91.20
2019-06-15T23:12:37.363Z,90.90
2019-06-15T23:15:07.880Z,90.80
2019-06-15T23:17:37.234Z,90.70
2019-06-15T23:20:07.906Z,90.60
2019-06-15T23:22:36.428Z,90.60
2019-06-15T23:25:06.132Z,91.00
2019-06-15T23:27:34.815Z,91.00
2019-06-15T23:30:06.773Z,91.10
2019-06-15T23:32:35.139Z,91.30
2019-06-15T23:35:06.524Z,91.30
2019-06-15T23:37:37.580Z,91.40
2019-06-15T23:40:19.998Z,91.40
2019-06-15T23:42:49.879Z,91.40
2019-06-15T23:45:19.807Z,91.40
2019-06-15T23:47:48.687Z,91.40
2019-06-15T23:50:18.734Z,91.30
2019-06-15T23:52:48.221Z,91.10
2019-06-15T23:55:18.890Z,91.00
2019-06-15T23:57:47.492Z,91.20
